sensor_id;sensor_type;location;lat;lon;timestamp;pressure;altitude;pressure_sealevel;temperature;humidity
25650;BME280;13505;45.196;5.696;2023-11-19T05:30:52;99861.25;;;6.25;100.00
25650;BME280;13505;45.196;5.696;2023-11-19T05:35:42;99867.16;;;6.35;99.69
25650;BME280;13505;45.196;5.696;2023-11-19T05:40:33;99852.16;;;6.45;98.27
25650;BME280;13505;45.196;5.696;2023-11-19T05:45:23;99856.44;;;6.49;97.52
25650;BME280;13505;45.196;5.696;2023-11-19T05:50:13;99859.59;;;6.19;99.79
25650;BME280;13505;45.196;5.696;2023-11-19T05:55:04;99855.75;;;6.39;99.58
25650;BME280;13505;45.196;5.696;2023-11-19T05:59:59;99866.84;;;6.53;98.19
25650;BME280;13505;45.196;5.696;2023-11-19T06:04:49;99869.56;;;6.47;98.77
25650;BME280;13505;45.196;5.696;2023-11-19T06:09:39;99858.00;;;6.59;99.13
25650;BME280;13505;45.196;5.696;2023-11-19T06:14:30;99849.16;;;6.65;97.80
25650;BME280;13505;45.196;5.696;2023-11-19T06:19:20;99854.41;;;6.65;96.94
25650;BME280;13505;45.196;5.696;2023-11-19T06:24:11;99845.06;;;6.50;98.88
25650;BME280;13505;45.196;5.696;2023-11-19T06:29:01;99851.34;;;6.41;97.41
25650;BME280;13505;45.196;5.696;2023-11-19T06:33:51;99837.69;;;6.72;96.92
25650;BME280;13505;45.196;5.696;2023-11-19T06:38:42;99833.28;;;6.73;96.98
25650;BME280;13505;45.196;5.696;2023-11-19T06:43:33;99835.22;;;6.64;98.91
25650;BME280;13505;45.196;5.696;2023-11-19T06:48:23;99841.00;;;6.80;96.84
25650;BME280;13505;45.196;5.696;2023-11-19T06:53:14;99856.59;;;6.87;96.56
25650;BME280;13505;45.196;5.696;2023-11-19T06:58:05;99840.88;;;6.87;96.20
25650;BME280;13505;45.196;5.696;2023-11-19T07:02:57;99847.19;;;6.78;96.14
25650;BME280;13505;45.196;5.696;2023-11-19T07:07:47;99844.41;;;6.84;95.97
25650;BME280;13505;45.196;5.696;2023-11-19T07:12:37;99847.03;;;6.86;94.97
25650;BME280;13505;45.196;5.696;2023-11-19T07:17:28;99850.53;;;6.84;94.47
25650;BME280;13505;45.196;5.696;2023-11-19T07:22:18;99854.91;;;6.84;93.89
25650;BME280;13505;45.196;5.696;2023-11-19T07:27:08;99843.34;;;6.94;95.69
25650;BME280;13505;45.196;5.696;2023-11-19T07:31:59;99839.63;;;7.05;94.43
25650;BME280;13505;45.196;5.696;2023-11-19T07:36:51;99832.72;;;7.42;93.59
25650;BME280;13505;45.196;5.696;2023-11-19T07:41:41;99839.59;;;7.47;93.11
25650;BME280;13505;45.196;5.696;2023-11-19T07:46:31;99843.53;;;7.67;91.03
25650;BME280;13505;45.196;5.696;2023-11-19T07:51:22;99834.28;;;7.88;90.80
25650;BME280;13505;45.196;5.696;2023-11-19T07:56:12;99842.22;;;8.21;87.92
25650;BME280;13505;45.196;5.696;2023-11-19T08:01:03;99849.44;;;8.13;89.70
25650;BME280;13505;45.196;5.696;2023-11-19T08:05:56;99852.00;;;8.16;89.61
25650;BME280;13505;45.196;5.696;2023-11-19T08:10:47;99860.50;;;8.26;89.05
25650;BME280;13505;45.196;5.696;2023-11-19T08:15:38;99870.72;;;8.73;87.34
25650;BME280;13505;45.196;5.696;2023-11-19T08:20:28;99882.03;;;9.08;84.02
25650;BME280;13505;45.196;5.696;2023-11-19T08:25:19;99873.19;;;9.41;81.95
25650;BME280;13505;45.196;5.696;2023-11-19T08:30:09;99869.97;;;9.60;79.51
25650;BME280;13505;45.196;5.696;2023-11-19T08:35:00;99876.25;;;9.84;78.56
25650;BME280;13505;45.196;5.696;2023-11-19T08:39:51;99878.13;;;10.09;77.40
25650;BME280;13505;45.196;5.696;2023-11-19T08:44:41;99882.78;;;10.01;76.85
25650;BME280;13505;45.196;5.696;2023-11-19T08:49:36;99886.84;;;10.11;76.23
25650;BME280;13505;45.196;5.696;2023-11-19T08:54:27;99885.19;;;10.07;76.55
25650;BME280;13505;45.196;5.696;2023-11-19T08:59:17;99896.41;;;10.41;74.18
25650;BME280;13505;45.196;5.696;2023-11-19T09:04:09;99889.19;;;10.47;75.15
25650;BME280;13505;45.196;5.696;2023-11-19T09:08:59;99880.63;;;10.66;74.79
25650;BME280;13505;45.196;5.696;2023-11-19T09:13:52;99872.38;;;10.23;75.13
25650;BME280;13505;45.196;5.696;2023-11-19T09:18:43;99878.63;;;10.47;74.59
25650;BME280;13505;45.196;5.696;2023-11-19T09:23:33;99858.81;;;10.61;73.89
25650;BME280;13505;45.196;5.696;2023-11-19T09:28:28;99870.72;;;10.73;74.98
25650;BME280;13505;45.196;5.696;2023-11-19T09:33:19;99867.09;;;11.25;74.44
25650;BME280;13505;45.196;5.696;2023-11-19T09:38:09;99871.97;;;11.12;73.30
25650;BME280;13505;45.196;5.696;2023-11-19T09:43:00;99857.88;;;11.59;71.11
25650;BME280;13505;45.196;5.696;2023-11-19T09:47:51;99866.09;;;11.73;70.01
25650;BME280;13505;45.196;5.696;2023-11-19T09:52:43;99861.59;;;11.98;71.16
25650;BME280;13505;45.196;5.696;2023-11-19T09:57:34;99850.38;;;12.15;70.30
25650;BME280;13505;45.196;5.696;2023-11-19T10:02:31;99843.72;;;12.48;70.39
25650;BME280;13505;45.196;5.696;2023-11-19T10:07:21;99842.53;;;12.55;67.85
25650;BME280;13505;45.196;5.696;2023-11-19T10:12:12;99833.81;;;12.32;70.09
25650;BME280;13505;45.196;5.696;2023-11-19T10:17:02;99827.78;;;12.28;70.44
25650;BME280;13505;45.196;5.696;2023-11-19T10:21:54;99824.22;;;12.90;69.64
25650;BME280;13505;45.196;5.696;2023-11-19T10:26:44;99812.34;;;12.59;67.82
25650;BME280;13505;45.196;5.696;2023-11-19T10:31:34;99809.66;;;12.61;67.54
25650;BME280;13505;45.196;5.696;2023-11-19T10:36:40;99790.97;;;12.64;68.03
25650;BME280;13505;45.196;5.696;2023-11-19T10:41:32;99780.28;;;13.05;65.61
25650;BME280;13505;45.196;5.696;2023-11-19T10:46:22;99780.56;;;12.99;65.73
25650;BME280;13505;45.196;5.696;2023-11-19T10:51:18;99781.50;;;13.17;64.07
25650;BME280;13505;45.196;5.696;2023-11-19T10:56:13;99776.66;;;13.64;62.91
25650;BME280;13505;45.196;5.696;2023-11-19T11:01:20;99778.28;;;14.03;62.74
25650;BME280;13505;45.196;5.696;2023-11-19T11:06:14;99770.13;;;13.89;62.89
25650;BME280;13505;45.196;5.696;2023-11-19T11:11:05;99770.28;;;14.21;61.44
25650;BME280;13505;45.196;5.696;2023-11-19T11:15:58;99753.94;;;14.46;61.28
25650;BME280;13505;45.196;5.696;2023-11-19T11:20:49;99732.31;;;15.04;63.15
25650;BME280;13505;45.196;5.696;2023-11-19T11:25:59;99739.31;;;15.05;60.31
25650;BME280;13505;45.196;5.696;2023-11-19T11:31:20;99735.72;;;15.22;60.27
25650;BME280;13505;45.196;5.696;2023-11-19T11:36:21;99739.22;;;14.74;60.68
25650;BME280;13505;45.196;5.696;2023-11-19T11:41:23;99735.56;;;15.25;59.45
25650;BME280;13505;45.196;5.696;2023-11-19T11:56:39;99728.34;;;15.43;59.08
25650;BME280;13505;45.196;5.696;2023-11-19T12:01:29;99719.88;;;15.37;59.98
25650;BME280;13505;45.196;5.696;2023-11-19T12:06:21;99716.66;;;15.62;58.16
25650;BME280;13505;45.196;5.696;2023-11-19T12:11:12;99708.50;;;15.80;58.46
25650;BME280;13505;45.196;5.696;2023-11-19T12:20:53;99697.50;;;16.45;56.24
25650;BME280;13505;45.196;5.696;2023-11-19T12:25:44;99677.63;;;16.51;57.24
25650;BME280;13505;45.196;5.696;2023-11-19T12:30:35;99674.31;;;16.18;58.29
25650;BME280;13505;45.196;5.696;2023-11-19T12:35:26;99673.63;;;16.00;59.75
25650;BME280;13505;45.196;5.696;2023-11-19T12:45:08;99668.72;;;15.78;57.88
25650;BME280;13505;45.196;5.696;2023-11-19T12:50:00;99654.72;;;15.90;61.25
25650;BME280;13505;45.196;5.696;2023-11-19T12:54:51;99646.66;;;16.07;58.68
25650;BME280;13505;45.196;5.696;2023-11-19T12:59:41;99655.47;;;16.07;58.31
25650;BME280;13505;45.196;5.696;2023-11-19T13:04:33;99642.28;;;16.06;59.23
25650;BME280;13505;45.196;5.696;2023-11-19T13:09:24;99633.34;;;15.47;59.90
25650;BME280;13505;45.196;5.696;2023-11-19T13:14:15;99631.09;;;15.70;62.04
25650;BME280;13505;45.196;5.696;2023-11-19T13:19:05;99628.25;;;15.73;60.04
25650;BME280;13505;45.196;5.696;2023-11-19T13:23:56;99624.88;;;16.14;60.79
25650;BME280;13505;45.196;5.696;2023-11-19T13:28:46;99625.44;;;16.34;59.91
25650;BME280;13505;45.196;5.696;2023-11-19T13:33:37;99625.91;;;16.41;56.72
25650;BME280;13505;45.196;5.696;2023-11-19T13:38:27;99622.50;;;16.39;58.63
25650;BME280;13505;45.196;5.696;2023-11-19T13:43:17;99618.00;;;16.54;60.19
25650;BME280;13505;45.196;5.696;2023-11-19T13:48:08;99617.13;;;16.68;59.15
25650;BME280;13505;45.196;5.696;2023-11-19T13:52:59;99612.03;;;16.50;60.15
25650;BME280;13505;45.196;5.696;2023-11-19T13:57:52;99620.13;;;16.34;60.78
25650;BME280;13505;45.196;5.696;2023-11-19T14:02:43;99613.84;;;16.35;61.00
25650;BME280;13505;45.196;5.696;2023-11-19T14:07:33;99616.50;;;16.35;61.99
25650;BME280;13505;45.196;5.696;2023-11-19T14:12:23;99626.78;;;16.41;62.05
25650;BME280;13505;45.196;5.696;2023-11-19T14:17:14;99620.97;;;16.35;62.45
25650;BME280;13505;45.196;5.696;2023-11-19T14:22:05;99630.69;;;16.21;63.24
25650;BME280;13505;45.196;5.696;2023-11-19T14:26:56;99626.41;;;16.18;63.76
25650;BME280;13505;45.196;5.696;2023-11-19T14:31:48;99627.00;;;16.09;64.28
25650;BME280;13505;45.196;5.696;2023-11-19T14:36:39;99619.00;;;15.95;66.77
25650;BME280;13505;45.196;5.696;2023-11-19T14:41:29;99622.94;;;15.87;66.27
25650;BME280;13505;45.196;5.696;2023-11-19T14:46:19;99619.22;;;15.75;68.65
25650;BME280;13505;45.196;5.696;2023-11-19T14:51:10;99623.72;;;15.44;72.28
25650;BME280;13505;45.196;5.696;2023-11-19T14:56:00;99641.69;;;15.25;72.44
25650;BME280;13505;45.196;5.696;2023-11-19T15:00:51;99632.28;;;15.19;75.67
25650;BME280;13505;45.196;5.696;2023-11-19T15:05:42;99640.78;;;15.10;79.09
25650;BME280;13505;45.196;5.696;2023-11-19T15:10:32;99632.00;;;15.24;76.99
25650;BME280;13505;45.196;5.696;2023-11-19T15:15:22;99637.00;;;15.44;73.00
25650;BME280;13505;45.196;5.696;2023-11-19T15:20:13;99629.34;;;15.54;70.20
25650;BME280;13505;45.196;5.696;2023-11-19T15:25:05;99633.44;;;15.60;69.18
25650;BME280;13505;45.196;5.696;2023-11-19T15:30:01;99636.59;;;15.67;69.63
25650;BME280;13505;45.196;5.696;2023-11-19T15:34:51;99635.06;;;15.62;70.01
25650;BME280;13505;45.196;5.696;2023-11-19T15:39:42;99645.50;;;15.20;69.88
25650;BME280;13505;45.196;5.696;2023-11-19T15:44:32;99647.13;;;15.07;70.04
25650;BME280;13505;45.196;5.696;2023-11-19T15:49:23;99650.13;;;15.17;69.67
25650;BME280;13505;45.196;5.696;2023-11-19T15:54:15;99643.84;;;15.18;69.89
25650;BME280;13505;45.196;5.696;2023-11-19T16:00:07;99640.34;;;15.01;71.39
25650;BME280;13505;45.196;5.696;2023-11-19T16:17:40;99660.06;;;14.97;70.55
25650;BME280;13505;45.196;5.696;2023-11-19T16:22:50;99665.47;;;14.96;70.45
25650;BME280;13505;45.196;5.696;2023-11-19T16:27:41;99659.91;;;14.84;70.39
25650;BME280;13505;45.196;5.696;2023-11-19T16:32:31;99669.69;;;14.84;70.33
25650;BME280;13505;45.196;5.696;2023-11-19T16:37:21;99666.81;;;14.71;71.61
25650;BME280;13505;45.196;5.696;2023-11-19T16:42:12;99672.63;;;14.61;71.76
25650;BME280;13505;45.196;5.696;2023-11-19T16:47:03;99675.97;;;14.65;71.50
25650;BME280;13505;45.196;5.696;2023-11-19T16:51:54;99674.53;;;14.59;71.85
25650;BME280;13505;45.196;5.696;2023-11-19T16:56:44;99672.44;;;14.48;74.85
25650;BME280;13505;45.196;5.696;2023-11-19T17:01:34;99687.69;;;14.45;73.16
25650;BME280;13505;45.196;5.696;2023-11-19T17:06:27;99682.72;;;14.55;73.06
25650;BME280;13505;45.196;5.696;2023-11-19T17:11:18;99676.41;;;14.57;73.39
25650;BME280;13505;45.196;5.696;2023-11-19T17:16:09;99676.03;;;14.47;74.70
25650;BME280;13505;45.196;5.696;2023-11-19T17:20:59;99676.75;;;14.33;76.10
25650;BME280;13505;45.196;5.696;2023-11-19T17:25:50;99682.06;;;14.33;76.07
25650;BME280;13505;45.196;5.696;2023-11-19T17:30:41;99684.69;;;14.17;77.99
25650;BME280;13505;45.196;5.696;2023-11-19T17:35:32;99692.03;;;14.12;79.40
25650;BME280;13505;45.196;5.696;2023-11-19T17:40:23;99686.38;;;14.02;79.79
25650;BME280;13505;45.196;5.696;2023-11-19T17:45:14;99689.50;;;13.93;79.02
25650;BME280;13505;45.196;5.696;2023-11-19T17:50:05;99702.00;;;13.73;81.23
25650;BME280;13505;45.196;5.696;2023-11-19T17:54:56;99704.63;;;13.73;80.91
25650;BME280;13505;45.196;5.696;2023-11-19T17:59:47;99701.28;;;13.87;78.78
25650;BME280;13505;45.196;5.696;2023-11-19T18:04:39;99715.25;;;13.73;80.35
25650;BME280;13505;45.196;5.696;2023-11-19T18:09:30;99709.53;;;13.63;79.67
25650;BME280;13505;45.196;5.696;2023-11-19T18:14:20;99713.22;;;13.61;81.01
25650;BME280;13505;45.196;5.696;2023-11-19T18:19:11;99716.38;;;13.50;81.13
25650;BME280;13505;45.196;5.696;2023-11-19T18:24:01;99708.66;;;13.45;80.84
25650;BME280;13505;45.196;5.696;2023-11-19T18:28:52;99715.69;;;13.27;83.92
25650;BME280;13505;45.196;5.696;2023-11-19T18:33:43;99700.34;;;13.34;82.93
25650;BME280;13505;45.196;5.696;2023-11-19T18:38:33;99710.25;;;13.30;82.64
25650;BME280;13505;45.196;5.696;2023-11-19T18:43:27;99699.97;;;13.24;83.99
25650;BME280;13505;45.196;5.696;2023-11-19T18:48:17;99691.69;;;13.12;85.61
25650;BME280;13505;45.196;5.696;2023-11-19T18:53:08;99686.59;;;13.08;86.45
25650;BME280;13505;45.196;5.696;2023-11-19T18:57:59;99686.25;;;12.96;86.45
25650;BME280;13505;45.196;5.696;2023-11-19T19:02:49;99695.75;;;13.01;87.32
25650;BME280;13505;45.196;5.696;2023-11-19T19:07:40;99693.19;;;12.99;87.63
25650;BME280;13505;45.196;5.696;2023-11-19T19:12:31;99697.84;;;12.94;88.37
25650;BME280;13505;45.196;5.696;2023-11-19T19:17:21;99702.38;;;12.92;87.93
25650;BME280;13505;45.196;5.696;2023-11-19T19:22:13;99707.84;;;12.68;91.05
25650;BME280;13505;45.196;5.696;2023-11-19T19:27:03;99718.38;;;12.69;91.55
25650;BME280;13505;45.196;5.696;2023-11-19T19:31:54;99714.69;;;12.53;92.58
25650;BME280;13505;45.196;5.696;2023-11-19T19:36:44;99708.75;;;12.28;95.05
25650;BME280;13505;45.196;5.696;2023-11-19T19:41:34;99709.06;;;12.21;96.12
25650;BME280;13505;45.196;5.696;2023-11-19T19:46:25;99711.13;;;12.14;96.75
25650;BME280;13505;45.196;5.696;2023-11-19T19:51:15;99711.03;;;12.17;96.50
25650;BME280;13505;45.196;5.696;2023-11-19T19:56:07;99706.50;;;12.19;95.71
25650;BME280;13505;45.196;5.696;2023-11-19T20:00:57;99710.88;;;12.20;95.97
25650;BME280;13505;45.196;5.696;2023-11-19T20:05:49;99699.16;;;12.26;95.42
25650;BME280;13505;45.196;5.696;2023-11-19T20:10:40;99706.16;;;12.27;94.91
25650;BME280;13505;45.196;5.696;2023-11-19T20:15:30;99703.72;;;12.22;95.98
25650;BME280;13505;45.196;5.696;2023-11-19T20:20:20;99717.50;;;12.10;98.24
25650;BME280;13505;45.196;5.696;2023-11-19T20:25:11;99711.66;;;12.01;99.12
25650;BME280;13505;45.196;5.696;2023-11-19T20:30:01;99722.59;;;11.92;100.00
25650;BME280;13505;45.196;5.696;2023-11-19T20:34:51;99719.91;;;11.94;99.63
25650;BME280;13505;45.196;5.696;2023-11-19T20:39:42;99719.66;;;11.79;100.00
25650;BME280;13505;45.196;5.696;2023-11-19T20:44:32;99715.00;;;11.64;100.00
25650;BME280;13505;45.196;5.696;2023-11-19T20:49:23;99717.13;;;11.76;100.00
25650;BME280;13505;45.196;5.696;2023-11-19T20:54:13;99724.22;;;11.53;100.00
25650;BME280;13505;45.196;5.696;2023-11-19T20:59:03;99726.22;;;11.48;100.00
25650;BME280;13505;45.196;5.696;2023-11-19T21:03:54;99723.50;;;11.27;100.00
25650;BME280;13505;45.196;5.696;2023-11-19T21:08:46;99710.53;;;11.21;100.00
25650;BME280;13505;45.196;5.696;2023-11-19T21:13:37;99716.13;;;11.36;100.00
25650;BME280;13505;45.196;5.696;2023-11-19T21:18:28;99707.09;;;10.97;100.00
25650;BME280;13505;45.196;5.696;2023-11-19T21:23:19;99707.16;;;10.95;100.00
25650;BME280;13505;45.196;5.696;2023-11-19T21:28:11;99713.59;;;10.88;100.00
25650;BME280;13505;45.196;5.696;2023-11-19T21:33:01;99723.38;;;11.08;100.00
25650;BME280;13505;45.196;5.696;2023-11-19T21:37:52;99726.28;;;10.78;100.00
25650;BME280;13505;45.196;5.696;2023-11-19T21:42:42;99730.47;;;10.34;100.00
25650;BME280;13505;45.196;5.696;2023-11-19T21:47:33;99740.38;;;10.28;100.00
25650;BME280;13505;45.196;5.696;2023-11-19T21:52:23;99738.13;;;10.68;100.00
25650;BME280;13505;45.196;5.696;2023-11-19T21:57:14;99744.53;;;10.60;100.00
25650;BME280;13505;45.196;5.696;2023-11-19T22:02:04;99744.28;;;10.67;100.00
25650;BME280;13505;45.196;5.696;2023-11-19T22:06:55;99737.06;;;10.72;100.00
25650;BME280;13505;45.196;5.696;2023-11-19T22:11:45;99748.06;;;10.83;100.00
25650;BME280;13505;45.196;5.696;2023-11-19T22:16:37;99742.34;;;10.72;100.00
25650;BME280;13505;45.196;5.696;2023-11-19T22:21:27;99743.66;;;10.60;100.00
25650;BME280;13505;45.196;5.696;2023-11-19T22:26:17;99747.47;;;10.53;100.00
25650;BME280;13505;45.196;5.696;2023-11-19T22:31:08;99754.91;;;10.65;100.00
25650;BME280;13505;45.196;5.696;2023-11-19T22:35:58;99753.19;;;10.64;100.00
25650;BME280;13505;45.196;5.696;2023-11-19T22:40:48;99763.66;;;10.40;100.00
25650;BME280;13505;45.196;5.696;2023-11-19T22:45:39;99758.56;;;10.61;100.00
25650;BME280;13505;45.196;5.696;2023-11-19T22:50:29;99754.13;;;10.63;100.00
25650;BME280;13505;45.196;5.696;2023-11-19T22:55:19;99753.44;;;10.56;100.00
